Time;durP1;ratioP1;P1;durP2;ratioP2;P2;SDS_P1;SDS_P2;PMS_P1;PMS_P2;Temp;Humidity;BMP_temperature;BMP_pressure;BME280_temperature;BME280_humidity;BME280_pressure;Samples;Min_cycle;Max_cycle;Signal;HPM_P1;HPM_P2
2022/03/09 12:40:57;;;;;;;11.50;6.30;;;9.50;99.90;;;;;;5111166;27;20463;-77
2022/03/09 12:43:23;;;;;;;7.20;6.55;;;9.50;99.90;;;;;;5111208;28;20170;-78
2022/03/09 12:45:53;;;;;;;6.63;6.10;;;9.70;99.90;;;;;;5111123;28;20632;-77
2022/03/09 12:48:20;;;;;;;8.18;7.38;;;9.80;99.90;;;;;;5111728;28;20174;-78
2022/03/09 12:50:47;;;;;;;7.80;6.72;;;9.90;99.90;;;;;;5111111;28;20644;-77
2022/03/09 12:53:19;;;;;;;6.55;5.95;;;10.10;99.90;;;;;;5111032;28;20220;-78
2022/03/09 12:55:44;;;;;;;7.30;6.30;;;10.20;99.90;;;;;;5111018;28;20163;-78
2022/03/09 12:58:10;;;;;;;8.20;6.55;;;10.30;99.90;;;;;;5110894;28;20667;-78
2022/03/09 13:00:36;;;;;;;7.93;6.70;;;10.40;99.90;;;;;;5110823;28;20195;-76
2022/03/09 13:03:02;;;;;;;10.55;7.13;;;10.50;99.90;;;;;;5110596;28;20167;-76
2022/03/09 13:05:29;;;;;;;7.97;6.90;;;10.60;99.90;;;;;;5109438;28;20168;-77
2022/03/09 13:08:06;;;;;;;6.85;6.15;;;10.70;99.90;;;;;;5110697;28;20167;-73
2022/03/09 13:10:49;;;;;;;6.88;6.15;;;10.80;99.90;;;;;;5110626;28;20201;-74
2022/03/09 13:13:27;;;;;;;8.90;6.43;;;11.00;99.90;;;;;;5109092;28;20174;-75
2022/03/09 13:15:59;;;;;;;7.90;6.50;;;11.10;99.90;;;;;;5110599;28;20212;-74
2022/03/09 13:18:32;;;;;;;7.65;6.93;;;11.30;99.90;;;;;;5110215;28;20174;-76
2022/03/09 13:20:59;;;;;;;9.90;5.72;;;11.40;99.90;;;;;;5109416;28;20578;-75
2022/03/09 13:23:27;;;;;;;8.13;7.10;;;11.50;99.90;;;;;;5110375;28;20166;-75
2022/03/09 13:25:54;;;;;;;6.80;6.20;;;11.60;99.90;;;;;;5111226;28;20163;-75
2022/03/09 13:28:30;;;;;;;7.75;7.03;;;11.70;99.90;;;;;;5108342;28;20408;-76
2022/03/09 13:30:56;;;;;;;8.35;6.78;;;11.70;99.90;;;;;;5108174;28;20163;-76
2022/03/09 13:33:23;;;;;;;10.85;6.50;;;11.80;99.90;;;;;;5110198;28;20576;-76
2022/03/09 13:35:51;;;;;;;6.82;6.18;;;11.80;99.90;;;;;;5109273;28;20175;-76
2022/03/09 13:38:29;;;;;;;7.38;6.65;;;11.90;99.90;;;;;;5110472;28;20515;-76
2022/03/09 13:41:06;;;;;;;6.72;6.13;;;12.00;99.90;;;;;;5110439;28;20175;-74
2022/03/09 13:43:36;;;;;;;6.47;5.88;;;12.10;99.90;;;;;;5110347;28;20191;-75
2022/03/09 13:46:32;;;;;;;8.65;6.63;;;12.20;99.90;;;;;;5109024;28;20193;-75
2022/03/09 13:49:14;;;;;;;6.80;6.15;;;12.30;99.60;;;;;;5100349;28;20186;-75
2022/03/09 13:51:40;;;;;;;9.40;6.50;;;12.50;99.20;;;;;;5100216;28;20164;-75
2022/03/09 13:54:06;;;;;;;7.15;6.40;;;12.60;99.20;;;;;;5096481;28;20167;-76
2022/03/09 13:56:34;;;;;;;6.90;6.18;;;12.70;97.30;;;;;;5095248;28;20171;-75
2022/03/09 13:59:00;;;;;;;7.75;6.95;;;12.70;96.90;;;;;;5096397;28;20573;-75
2022/03/09 14:01:33;;;;;;;6.65;6.00;;;12.80;97.30;;;;;;5096504;28;20164;-76
2022/03/09 14:04:04;;;;;;;6.97;6.25;;;13.00;96.20;;;;;;5096408;28;20175;-75
2022/03/09 14:06:30;;;;;;;7.93;7.13;;;13.10;95.80;;;;;;5095095;28;20175;-75
2022/03/09 14:09:00;;;;;;;7.20;6.38;;;13.10;95.70;;;;;;5096236;28;20191;-76
2022/03/09 14:11:27;;;;;;;7.00;6.05;;;13.30;96.10;;;;;;5094401;28;20176;-75
2022/03/09 14:13:57;;;;;;;10.18;7.10;;;13.30;94.20;;;;;;5096166;28;20199;-75
2022/03/09 14:16:29;;;;;;;8.38;6.15;;;13.40;94.30;;;;;;5096137;28;20179;-76
2022/03/09 14:18:56;;;;;;;8.15;6.20;;;13.50;94.90;;;;;;5096080;28;20207;-76
2022/03/09 14:21:22;;;;;;;7.63;6.97;;;13.60;92.40;;;;;;5096058;28;20697;-76
2022/03/09 14:23:49;;;;;;;10.05;6.35;;;13.70;92.30;;;;;;5095961;28;20170;-76
2022/03/09 14:26:15;;;;;;;7.78;6.97;;;13.70;90.50;;;;;;5096014;28;20258;-77
2022/03/09 14:28:42;;;;;;;7.40;6.68;;;14.00;91.10;;;;;;5094549;28;20179;-75
2022/03/09 14:31:08;;;;;;;6.90;6.18;;;13.70;90.10;;;;;;5095897;28;20168;-76
2022/03/09 14:33:39;;;;;;;7.43;6.38;;;13.80;90.70;;;;;;5095761;28;20705;-77
2022/03/09 14:36:06;;;;;;;6.63;6.03;;;13.90;90.70;;;;;;5095730;28;20322;-77
2022/03/09 14:38:34;;;;;;;7.32;6.43;;;13.90;91.00;;;;;;5095306;28;20648;-77
2022/03/09 14:41:00;;;;;;;10.10;6.35;;;14.10;86.50;;;;;;5094289;28;20172;-77
2022/03/09 14:43:28;;;;;;;6.75;5.90;;;14.10;83.20;;;;;;5095547;28;20160;-78
2022/03/09 14:45:54;;;;;;;8.60;5.78;;;14.10;84.00;;;;;;5095667;28;20242;-78
2022/03/09 14:48:20;;;;;;;6.32;5.72;;;14.20;82.50;;;;;;5094243;28;20202;-75
2022/03/09 14:50:46;;;;;;;6.55;5.85;;;14.30;79.80;;;;;;5094111;28;20267;-75
2022/03/09 14:53:12;;;;;;;6.28;5.78;;;14.30;80.50;;;;;;5095394;28;20173;-75
2022/03/09 14:55:39;;;;;;;5.43;4.93;;;14.40;78.50;;;;;;5095173;28;20171;-75
2022/03/09 14:58:04;;;;;;;4.97;4.68;;;14.40;73.50;;;;;;5095151;28;20629;-80
2022/03/09 15:00:30;;;;;;;4.90;4.60;;;14.50;71.30;;;;;;5094922;28;20179;-82
2022/03/09 15:02:56;;;;;;;5.90;5.30;;;14.50;72.30;;;;;;5093999;28;20171;-78
2022/03/09 15:05:21;;;;;;;6.03;5.18;;;14.60;71.60;;;;;;5093553;28;20237;-79
2022/03/09 15:07:47;;;;;;;6.00;5.50;;;14.70;71.20;;;;;;5094852;28;20172;-80
2022/03/09 15:10:13;;;;;;;6.30;5.63;;;14.70;71.30;;;;;;5094566;28;20203;-81
2022/03/09 15:12:38;;;;;;;6.07;5.55;;;14.70;72.30;;;;;;5094650;28;20176;-81
2022/03/09 15:15:06;;;;;;;6.00;5.50;;;14.70;72.80;;;;;;5094612;28;20214;-83
2022/03/09 15:17:32;;;;;;;5.88;5.35;;;14.60;73.80;;;;;;5094796;28;20172;-84
2022/03/09 15:19:58;;;;;;;6.70;6.13;;;14.70;73.30;;;;;;5093369;28;20182;-84
2022/03/09 15:22:23;;;;;;;6.38;5.88;;;14.80;73.30;;;;;;5094554;28;20171;-83
2022/03/09 15:24:49;;;;;;;7.60;6.07;;;14.80;69.60;;;;;;5094619;28;20164;-84
2022/03/09 15:27:15;;;;;;;5.78;5.38;;;14.70;70.10;;;;;;5094580;28;20647;-87
2022/03/09 15:29:41;;;;;;;6.05;5.55;;;14.60;70.30;;;;;;5093196;28;20660;-81
2022/03/09 15:32:07;;;;;;;5.90;5.38;;;14.70;69.10;;;;;;5094418;28;20228;-81
2022/03/09 15:34:33;;;;;;;5.82;5.38;;;14.60;67.70;;;;;;5094307;28;20167;-82
2022/03/09 15:36:58;;;;;;;6.43;5.38;;;14.60;70.30;;;;;;5094385;28;20160;-78
2022/03/09 15:39:25;;;;;;;5.90;5.03;;;14.60;70.90;;;;;;5094128;28;20273;-76
2022/03/09 15:41:51;;;;;;;6.03;5.63;;;14.60;70.10;;;;;;5094281;28;20168;-76
2022/03/09 15:44:17;;;;;;;5.88;5.35;;;14.70;69.20;;;;;;5094170;28;20186;-76
2022/03/09 15:46:44;;;;;;;7.45;5.35;;;14.60;68.60;;;;;;5094187;28;20221;-76
2022/03/09 15:49:10;;;;;;;9.10;5.78;;;14.50;68.80;;;;;;5094012;28;20245;-76
2022/03/09 15:51:36;;;;;;;6.30;5.80;;;14.40;70.40;;;;;;5094065;28;20179;-76
2022/03/09 15:54:02;;;;;;;5.07;4.68;;;14.50;70.30;;;;;;5093989;28;20168;-76
2022/03/09 15:56:28;;;;;;;5.13;4.82;;;14.40;69.10;;;;;;5092757;28;20172;-76
2022/03/09 15:58:54;;;;;;;6.63;5.68;;;14.30;71.20;;;;;;5093960;28;20633;-76
2022/03/09 16:01:19;;;;;;;6.28;5.70;;;14.30;70.50;;;;;;5093880;28;20172;-76
2022/03/09 16:03:45;;;;;;;10.85;6.35;;;14.40;68.50;;;;;;5093816;28;20258;-76
2022/03/09 16:06:11;;;;;;;6.88;6.18;;;14.30;70.60;;;;;;5093790;28;20217;-76
2022/03/09 16:08:36;;;;;;;6.30;5.75;;;14.30;69.20;;;;;;5093651;28;20226;-75
2022/03/09 16:11:02;;;;;;;6.35;5.85;;;14.30;69.40;;;;;;5093755;28;20195;-74
2022/03/09 16:13:29;;;;;;;7.63;5.82;;;14.20;68.60;;;;;;5093868;28;20336;-73
2022/03/09 16:15:55;;;;;;;7.20;5.57;;;14.20;68.50;;;;;;5093829;28;20171;-73
2022/03/09 16:18:21;;;;;;;6.82;6.25;;;13.90;68.40;;;;;;5093940;28;20167;-73
2022/03/09 16:20:47;;;;;;;7.10;6.50;;;13.80;69.00;;;;;;5093860;28;20171;-85
2022/03/09 16:23:13;;;;;;;7.85;5.50;;;13.80;71.00;;;;;;5095127;28;20171;-85
2022/03/09 16:25:39;;;;;;;6.72;6.03;;;13.70;70.20;;;;;;5097911;28;20207;-84
2022/03/09 16:28:05;;;;;;;6.97;6.45;;;13.50;68.60;;;;;;5096261;28;20626;-85
2022/03/09 16:30:32;;;;;;;8.75;5.90;;;13.40;69.80;;;;;;5079801;28;20676;-85
2022/03/09 16:32:58;;;;;;;7.72;5.07;;;14.00;70.90;;;;;;5097137;28;20176;-85
2022/03/09 16:35:24;;;;;;;7.55;5.97;;;13.30;69.60;;;;;;5095776;28;20258;-85
2022/03/09 16:37:50;;;;;;;6.90;6.10;;;13.20;70.10;;;;;;5097104;28;20641;-85
2022/03/09 16:40:19;;;;;;;7.72;5.47;;;13.20;70.60;;;;;;5098120;28;20247;-85
2022/03/09 16:42:46;;;;;;;5.82;5.28;;;13.10;71.20;;;;;;5098102;28;20621;-83
2022/03/09 16:45:14;;;;;;;6.03;5.53;;;13.60;72.50;;;;;;5097677;28;20224;-84
2022/03/09 16:47:43;;;;;;;7.25;5.80;;;13.60;72.10;;;;;;5096695;28;20216;-83
2022/03/09 16:50:09;;;;;;;6.43;5.80;;;13.00;72.80;;;;;;5098566;28;20204;-83
2022/03/09 16:52:35;;;;;;;7.13;6.28;;;12.60;72.40;;;;;;5097377;28;20167;-82
2022/03/09 16:55:02;;;;;;;7.03;5.80;;;12.10;73.50;;;;;;5097399;28;20175;-83
2022/03/09 16:57:29;;;;;;;6.47;5.97;;;13.80;75.50;;;;;;5098308;28;20221;-83
2022/03/09 16:59:55;;;;;;;9.05;5.97;;;13.10;75.90;;;;;;5098110;28;20497;-83
2022/03/09 17:02:21;;;;;;;8.93;5.88;;;12.70;76.00;;;;;;5097367;28;20206;-83
2022/03/09 17:04:46;;;;;;;7.10;6.50;;;12.10;76.80;;;;;;5097248;28;20171;-86
2022/03/09 17:07:12;;;;;;;6.38;5.88;;;12.70;77.40;;;;;;5097731;28;20178;-83
2022/03/09 17:09:38;;;;;;;7.53;5.93;;;11.40;77.20;;;;;;5097096;28;20199;-84
2022/03/09 17:12:03;;;;;;;7.32;6.35;;;12.20;78.90;;;;;;5095804;28;20164;-83
2022/03/09 17:14:29;;;;;;;6.45;5.85;;;11.00;79.20;;;;;;5097333;28;20164;-84
2022/03/09 17:16:55;;;;;;;7.82;5.78;;;10.80;78.60;;;;;;5097437;28;20247;-82
2022/03/09 17:19:24;;;;;;;9.02;6.95;;;11.10;79.20;;;;;;5097785;28;20195;-83
2022/03/09 17:22:07;;;;;;;7.38;6.57;;;10.40;81.60;;;;;;5097669;28;20171;-83
2022/03/09 17:24:54;;;;;;;6.40;5.72;;;10.80;81.80;;;;;;5096843;28;20175;-83
2022/03/09 17:27:23;;;;;;;7.82;6.38;;;11.30;85.40;;;;;;5100627;28;20183;-84
